Hay Springs, NE (69347)

8:14 PM MDT on April 25, 2017 (GMT -0600)
MHRSN1 | | Change Station

Elev 4077 ft 42.72 °N, 102.97 °W | Updated 6 minutes ago

Overcast
Overcast
26.0 °F
Feels Like 14 °F
N
15.0
Wind Variable Wind from North

Today
High -- | Low -- °F
--% Chance of Precip.
Yesterday
High -- | Low -- °F
Precip. -- in
Pressure 29.96 in
Visibility 5.0 miles
Clouds Scattered Clouds 1000 ft
Overcast 1600 ft
Windchill 14 °F
Dew Point 25 °F
Humidity 96%
Rainfall 0.17 in
Snow Depth Not available.
5:53 AM 7:44 PM
Waning Crescent, 0% visible
METAR KCDR 260153Z AUTO 02011KT 5SM -SN BR SCT010 OVC016 M01/M03 A2986 RMK AO2 SNE27B52 SLP143 P0000 T10111033
Pressure 29.96 in
Visibility 5.0 miles
Clouds Scattered Clouds 1000 ft
Overcast 1600 ft
Windchill 14 °F
Dew Point 25 °F
Humidity 96%
Rainfall 0.17 in
Snow Depth Not available.
5:53 AM 7:44 PM
Waning Crescent, 0% visible
METAR KCDR 260153Z AUTO 02011KT 5SM -SN BR SCT010 OVC016 M01/M03 A2986 RMK AO2 SNE27B52 SLP143 P0000 T10111033

Get Severe Weather Alerts

Thanks for signing up!

Be on the lookout for a verification email in your inbox.

You'll start receiving the daily forecast at 8 AM.

×

10-Day Weather Forecast

Almanac

Astronomy

Apr. 25, 2017 Rise Set
Actual Time
Civil Twilight
Nautical Twilight
Astronomical Twilight
Moon
Length of Visible Light
Length of Day
Tomorrow will be .
, % of the Moon is Illuminated

Today's Extremes

State Highs State Lows

Community

WunderPhotos

WunderBlog® & News

Nearby

Air Quality

  Air Quality AQ Index Pollutant
Not available.

Snow Depth

Station Depth Elevation

Earthquake Activity

City Distance Mag. Time & Date
Minimum magnitude displayed is 2.5.

Coastal Water Temperatures

Place Temperature

Stations

Nearby Weather Stations

Station Location Temp. Windchill Dew Point Humidity Wind Precip. Elev Updated Type
                   

Watches & Warnings

There are currently no watches in effect.